Test XHTML 1.0 Strict Page for WU-History Testing
Histórico de la Estación METEOABEGONDO
 
Diario Datos del Diciembre 17, 2017 Unidades:  Metrico    Inglés   Ambos
« Prev Dia
Sig Dia »
Diario Semanal Mensual Anual Rango
  Actual: Max: Min: Media:
Temp: 12.3 °C 12.3 °C 2.2 °C 5.4 °C
Rocío: 4.7 °C 8.4 °C 1.7 °C 3.6 °C
Humedad: 60 % 99 % 57 % 90 %
Vel. viento: 3.7 km/h 7.4 km/h 0.0 km/h 0.7 km/h
Racha: 3.7 km/h 7.4 km/h - -
Viento:NE - - SE
Presión: 1034.1 hPa 1035.4 hPa 1033.1 hPa -
Lluvia: 0.3 mm      
Historical Graphs
 
 
Busqueda de Diciembre 17, 2017
Hora Temp Rocío Presión Viento Vel. viento Racha Humedad Ratio lluvia (/hora) Radiación
00:00 4.2 °C 3.5 °C 1033.1 hPa Calm     95 % 0.3 mm 0.0 W/m2
00:05 4.2 °C 3.4 °C 1033.4 hPa Calm     95 % 0.3 mm 0.0 W/m2
00:10 4.0 °C 3.3 °C 1033.4 hPa Calm     95 % 0.3 mm 0.0 W/m2
00:15 4.0 °C 3.3 °C 1033.4 hPa Calm     95 % 0.0 mm 0.0 W/m2
00:16 4.0 °C 3.3 °C 1033.4 hPa Calm     95 % 0.0 mm 0.0 W/m2
00:21 3.9 °C 3.2 °C 1033.4 hPa Calm     95 % 0.0 mm 0.0 W/m2
00:24 3.9 °C 3.2 °C 1033.4 hPa Calm     95 % 0.0 mm 0.0 W/m2
00:30 4.0 °C 3.3 °C 1033.4 hPa Calm     95 % 0.0 mm 0.0 W/m2
00:31 4.0 °C 3.3 °C 1033.4 hPa Calm     95 % 0.0 mm 0.0 W/m2
00:36 4.0 °C 3.3 °C 1033.4 hPa West 1.6 km/h   95 % 0.0 mm 0.0 W/m2
00:41 3.9 °C 3.2 °C 1033.4 hPa Calm     95 % 0.0 mm 0.0 W/m2
00:42 3.9 °C 3.2 °C 1033.4 hPa Calm     95 % 0.0 mm 0.0 W/m2
00:47 3.8 °C 3.1 °C 1033.4 hPa Calm     95 % 0.0 mm 0.0 W/m2
00:50 3.8 °C 3.1 °C 1033.4 hPa Calm     95 % 0.0 mm 0.0 W/m2
00:55 3.7 °C 2.9 °C 1033.4 hPa Calm     95 % 0.0 mm 0.0 W/m2
00:59 3.7 °C 2.9 °C 1033.4 hPa Calm     95 % 0.0 mm 0.0 W/m2
01:04 3.7 °C 3.1 °C 1033.4 hPa Calm     96 % 0.0 mm 0.0 W/m2
01:05 3.7 °C 3.1 °C 1033.4 hPa Calm     96 % 0.0 mm 0.0 W/m2
01:07 3.7 °C 3.1 °C 1033.4 hPa Calm     96 % 0.0 mm 0.0 W/m2
01:12 3.7 °C 3.1 °C 1033.4 hPa West 1.9 km/h   96 % 0.0 mm 0.0 W/m2
01:18 3.6 °C 3.1 °C 1033.4 hPa Calm     96 % 0.0 mm 0.0 W/m2
01:21 3.6 °C 3.1 °C 1033.4 hPa Calm     96 % 0.0 mm 0.0 W/m2
01:26 3.6 °C 3.1 °C 1033.4 hPa Calm     96 % 0.0 mm 0.0 W/m2
01:28 3.5 °C 2.9 °C 1033.4 hPa Calm     96 % 0.0 mm 0.0 W/m2
01:33 3.5 °C 2.9 °C 1033.4 hPa Calm     96 % 0.0 mm 0.0 W/m2
01:35 3.5 °C 2.9 °C 1033.4 hPa Calm     96 % 0.0 mm 0.0 W/m2
01:40 3.6 °C 3.1 °C 1033.4 hPa Calm     96 % 0.0 mm 0.0 W/m2
01:42 3.6 °C 3.1 °C 1033.4 hPa Calm     96 % 0.0 mm 0.0 W/m2
01:47 3.7 °C 3.1 °C 1033.4 hPa Calm     96 % 0.0 mm 0.0 W/m2
01:50 3.7 °C 3.1 °C 1033.4 hPa Calm     96 % 0.0 mm 0.0 W/m2
01:55 3.7 °C 3.1 °C 1033.4 hPa Calm   1.6 km/h 96 % 0.0 mm 0.0 W/m2
02:00 3.7 °C 3.1 °C 1033.4 hPa Calm     96 % 0.0 mm 0.0 W/m2
02:05 3.8 °C 3.2 °C 1033.4 hPa Calm   1.6 km/h 96 % 0.0 mm 0.0 W/m2
02:10 3.8 °C 3.2 °C 1033.4 hPa Calm     96 % 0.0 mm 0.0 W/m2
02:13 3.7 °C 3.1 °C 1033.4 hPa Calm     96 % 0.0 mm 0.0 W/m2
02:14 3.7 °C 3.1 °C 1033.4 hPa Calm     96 % 0.0 mm 0.0 W/m2
02:19 3.6 °C 3.1 °C 1033.4 hPa Calm     96 % 0.0 mm 0.0 W/m2
02:20 3.6 °C 3.1 °C 1033.4 hPa Calm     96 % 0.0 mm 0.0 W/m2
02:24 3.6 °C 3.1 °C 1033.4 hPa Calm     96 % 0.0 mm 0.0 W/m2
02:29 3.8 °C 3.3 °C 1033.4 hPa Calm     97 % 0.0 mm 0.0 W/m2
02:33 3.8 °C 3.4 °C 1033.4 hPa Calm     97 % 0.0 mm 0.0 W/m2
02:38 3.9 °C 3.4 °C 1033.4 hPa Calm     96 % 0.0 mm 0.0 W/m2
02:43 3.8 °C 3.3 °C 1033.1 hPa SSW 3.7 km/h 3.7 km/h 96 % 0.0 mm 0.0 W/m2
02:48 3.9 °C 3.4 °C 1033.1 hPa Calm     96 % 0.0 mm 0.0 W/m2
02:49 3.9 °C 3.4 °C 1033.1 hPa Calm     96 % 0.0 mm 0.0 W/m2
02:51 3.8 °C 3.3 °C 1033.1 hPa Calm     96 % 0.0 mm 0.0 W/m2
02:56 3.8 °C 3.2 °C 1033.1 hPa SSW 3.2 km/h 3.2 km/h 96 % 0.0 mm 0.0 W/m2
02:59 3.8 °C 3.2 °C 1033.1 hPa SSW 1.9 km/h   96 % 0.0 mm 0.0 W/m2
03:05 3.8 °C 3.3 °C 1033.1 hPa Calm     97 % 0.0 mm 0.0 W/m2
03:11 3.8 °C 3.4 °C 1033.1 hPa Calm     97 % 0.0 mm 0.0 W/m2
03:14 3.9 °C 3.5 °C 1033.1 hPa Calm     97 % 0.0 mm 0.0 W/m2
03:19 4.0 °C 3.6 °C 1033.1 hPa Calm     97 % 0.0 mm 0.0 W/m2
03:23 4.1 °C 3.6 °C 1033.4 hPa Calm     97 % 0.0 mm 0.0 W/m2
03:27 4.0 °C 3.4 °C 1033.4 hPa Calm     96 % 0.0 mm 0.0 W/m2
03:30 3.9 °C 3.4 °C 1033.4 hPa Calm     96 % 0.0 mm 0.0 W/m2
03:35 3.8 °C 3.3 °C 1033.4 hPa Calm     96 % 0.0 mm 0.0 W/m2
03:40 3.9 °C 3.5 °C 1033.4 hPa SSW 5.6 km/h 5.6 km/h 97 % 0.0 mm 0.0 W/m2
03:41 3.9 °C 3.5 °C 1033.4 hPa SSW 3.7 km/h 3.7 km/h 97 % 0.0 mm 0.0 W/m2
03:46 3.9 °C 3.4 °C 1033.4 hPa Calm     96 % 0.0 mm 0.0 W/m2
03:47 3.8 °C 3.3 °C 1033.4 hPa Calm     96 % 0.0 mm 0.0 W/m2
03:52 3.8 °C 3.3 °C 1033.4 hPa SSW 1.6 km/h 1.6 km/h 96 % 0.0 mm 0.0 W/m2
03:57 3.8 °C 3.4 °C 1033.4 hPa Calm     97 % 0.0 mm 0.0 W/m2
04:01 3.9 °C 3.5 °C 1033.4 hPa Calm     97 % 0.0 mm 0.0 W/m2
04:06 3.8 °C 3.3 °C 1033.4 hPa Calm     96 % 0.0 mm 0.0 W/m2
04:08 3.8 °C 3.2 °C 1033.4 hPa Calm     96 % 0.0 mm 0.0 W/m2
04:11 3.7 °C 3.1 °C 1033.4 hPa SSW 1.6 km/h   96 % 0.0 mm 0.0 W/m2
04:14 3.5 °C 2.9 °C 1033.1 hPa SSW 1.9 km/h   96 % 0.0 mm 0.0 W/m2
04:19 3.4 °C 2.9 °C 1033.1 hPa Calm     96 % 0.0 mm 0.0 W/m2
04:24 3.4 °C 2.9 °C 1033.1 hPa Calm     96 % 0.0 mm 0.0 W/m2
04:29 3.3 °C 2.8 °C 1033.1 hPa SSW 1.9 km/h   96 % 0.0 mm 0.0 W/m2
04:31 3.3 °C 2.9 °C 1033.1 hPa Calm     97 % 0.0 mm 0.0 W/m2
04:36 3.5 °C 3.1 °C 1033.1 hPa Calm     97 % 0.0 mm 0.0 W/m2
04:41 3.6 °C 3.2 °C 1033.1 hPa Calm     97 % 0.0 mm 0.0 W/m2
04:46 3.5 °C 2.9 °C 1033.1 hPa Calm     96 % 0.0 mm 0.0 W/m2
04:50 3.4 °C 2.9 °C 1033.1 hPa Calm     96 % 0.0 mm 0.0 W/m2
04:55 3.3 °C 2.7 °C 1033.4 hPa Calm     96 % 0.0 mm 0.0 W/m2
04:57 3.3 °C 2.7 °C 1033.4 hPa SSW 1.9 km/h 1.9 km/h 96 % 0.0 mm 0.0 W/m2
05:00 3.2 °C 2.7 °C 1033.4 hPa Calm     96 % 0.0 mm 0.0 W/m2
05:05 3.1 °C 2.6 °C 1033.1 hPa Calm     96 % 0.0 mm 0.0 W/m2
05:10 2.9 °C 2.4 °C 1033.1 hPa Calm     96 % 0.0 mm 0.0 W/m2
05:15 2.9 °C 2.3 °C 1033.1 hPa Calm     96 % 0.0 mm 0.0 W/m2
05:20 2.8 °C 2.2 °C 1033.1 hPa Calm     96 % 0.0 mm 0.0 W/m2
05:25 2.7 °C 2.2 °C 1033.1 hPa Calm     96 % 0.0 mm 0.0 W/m2
05:27 2.7 °C 2.1 °C 1033.1 hPa Calm     96 % 0.0 mm 0.0 W/m2
05:32 2.7 °C 2.1 °C 1033.1 hPa Calm     96 % 0.0 mm 0.0 W/m2
05:33 2.7 °C 2.1 °C 1033.1 hPa Calm     96 % 0.0 mm 0.0 W/m2
05:38 2.6 °C 2.0 °C 1033.1 hPa Calm     96 % 0.0 mm 0.0 W/m2
05:39 2.5 °C 1.9 °C 1033.1 hPa Calm     96 % 0.0 mm 0.0 W/m2
05:44 2.4 °C 1.8 °C 1033.1 hPa Calm     96 % 0.0 mm 0.0 W/m2
05:48 2.4 °C 1.8 °C 1033.4 hPa Calm     96 % 0.0 mm 0.0 W/m2
05:51 2.5 °C 2.1 °C 1033.4 hPa SSW 1.9 km/h   97 % 0.0 mm 0.0 W/m2
05:56 2.7 °C 2.3 °C 1033.1 hPa Calm     97 % 0.0 mm 0.0 W/m2
05:58 2.8 °C 2.3 °C 1033.1 hPa Calm     97 % 0.0 mm 0.0 W/m2
06:03 2.9 °C 2.4 °C 1033.4 hPa Calm     97 % 0.0 mm 0.0 W/m2
06:05 2.9 °C 2.4 °C 1033.4 hPa Calm     97 % 0.0 mm 0.0 W/m2
06:10 2.9 °C 2.5 °C 1033.1 hPa Calm     97 % 0.0 mm 0.0 W/m2
06:13 3.1 °C 2.6 °C 1033.1 hPa Calm     97 % 0.0 mm 0.0 W/m2
06:18 3.3 °C 3.0 °C 1033.1 hPa Calm     98 % 0.0 mm 0.0 W/m2
06:20 3.3 °C 3.1 °C 1033.1 hPa Calm     98 % 0.0 mm 0.0 W/m2
06:25 3.3 °C 2.8 °C 1033.1 hPa Calm     97 % 0.0 mm 0.0 W/m2
06:26 3.2 °C 2.8 °C 1033.1 hPa Calm     97 % 0.0 mm 0.0 W/m2
06:31 3.1 °C 2.6 °C 1033.1 hPa Calm     97 % 0.0 mm 0.0 W/m2
06:32 3.1 °C 2.6 °C 1033.1 hPa Calm     97 % 0.0 mm 0.0 W/m2
06:35 2.9 °C 2.4 °C 1033.1 hPa SSW 1.6 km/h   97 % 0.0 mm 0.0 W/m2
06:37 2.9 °C 2.4 °C 1033.1 hPa Calm     97 % 0.0 mm 0.0 W/m2
06:42 2.8 °C 2.3 °C 1033.4 hPa Calm     97 % 0.0 mm 0.0 W/m2
06:47 2.7 °C 2.1 °C 1033.4 hPa Calm     96 % 0.0 mm 0.0 W/m2
06:52 2.6 °C 2.1 °C 1033.4 hPa Calm     97 % 0.0 mm 0.0 W/m2
06:57 2.5 °C 2.1 °C 1033.4 hPa Calm     97 % 0.0 mm 0.0 W/m2
06:58 2.5 °C 2.1 °C 1033.4 hPa Calm     97 % 0.0 mm 0.0 W/m2
07:00 2.4 °C 1.9 °C 1033.4 hPa Calm     97 % 0.0 mm 0.0 W/m2
07:04 2.3 °C 1.9 °C 1033.4 hPa Calm     97 % 0.0 mm 0.0 W/m2
07:07 2.2 °C 1.8 °C 1033.4 hPa Calm     97 % 0.0 mm 0.0 W/m2
07:09 2.2 °C 1.8 °C 1033.7 hPa SSW 1.9 km/h   97 % 0.0 mm 0.0 W/m2
07:15 2.2 °C 1.7 °C 1033.7 hPa Calm     97 % 0.0 mm 0.0 W/m2
07:20 2.2 °C 1.7 °C 1033.7 hPa Calm     97 % 0.0 mm 0.0 W/m2
07:25 2.2 °C 1.7 °C 1033.7 hPa Calm     97 % 0.0 mm 0.0 W/m2
07:30 2.2 °C 1.7 °C 1033.7 hPa Calm     97 % 0.0 mm 0.0 W/m2
07:35 2.2 °C 1.8 °C 1033.7 hPa SSW 1.9 km/h   97 % 0.0 mm 0.0 W/m2
07:40 2.4 °C 2.1 °C 1033.7 hPa SSW 1.9 km/h 1.9 km/h 98 % 0.0 mm 0.0 W/m2
07:41 2.5 °C 2.2 °C 1033.7 hPa Calm     98 % 0.0 mm 0.0 W/m2
07:46 2.5 °C 2.1 °C 1033.7 hPa SE 3.7 km/h 3.7 km/h 97 % 0.0 mm 0.0 W/m2
07:50 2.5 °C 2.1 °C 1033.7 hPa Calm     97 % 0.0 mm 0.0 W/m2
07:54 2.5 °C 2.1 °C 1033.7 hPa Calm     97 % 0.0 mm 0.0 W/m2
07:59 2.4 °C 1.9 °C 1033.7 hPa Calm     97 % 0.0 mm 0.0 W/m2
08:04 2.3 °C 1.9 °C 1033.7 hPa Calm     97 % 0.0 mm 0.0 W/m2
08:09 2.6 °C 2.3 °C 1033.7 hPa SE 3.7 km/h   98 % 0.0 mm 0.0 W/m2
08:14 2.7 °C 2.4 °C 1033.7 hPa SE 1.9 km/h 1.9 km/h 98 % 0.0 mm 0.0 W/m2
08:16 2.8 °C 2.5 °C 1033.7 hPa SE 5.6 km/h   98 % 0.0 mm 0.0 W/m2
08:21 2.9 °C 2.6 °C 1033.7 hPa Calm     98 % 0.0 mm 0.0 W/m2
08:24 2.9 °C 2.7 °C 1033.7 hPa Calm     98 % 0.0 mm 0.0 W/m2
08:27 2.9 °C 2.4 °C 1034.1 hPa SE 1.9 km/h   97 % 0.0 mm 0.0 W/m2
08:29 2.8 °C 2.3 °C 1033.7 hPa Calm     97 % 0.0 mm 0.0 W/m2
08:34 2.6 °C 2.1 °C 1034.1 hPa Calm     97 % 0.0 mm 0.0 W/m2
08:35 2.6 °C 2.1 °C 1034.1 hPa Calm     97 % 0.0 mm 0.0 W/m2
08:40 2.4 °C 1.9 °C 1034.1 hPa Calm     97 % 0.0 mm 0.0 W/m2
08:43 2.2 °C 1.8 °C 1034.1 hPa Calm     97 % 0.0 mm 0.0 W/m2
08:48 2.2 °C 1.8 °C 1034.1 hPa Calm     97 % 0.0 mm 0.0 W/m2
08:52 2.2 °C 1.7 °C 1034.1 hPa SE 3.7 km/h 3.7 km/h 97 % 0.0 mm 0.0 W/m2
08:57 2.2 °C 1.7 °C 1034.4 hPa Calm     97 % 0.0 mm 0.0 W/m2
09:02 2.2 °C 1.7 °C 1034.4 hPa Calm     97 % 0.0 mm 5.0 W/m2
09:05 2.2 °C 1.7 °C 1034.4 hPa Calm     97 % 0.0 mm 7.0 W/m2
09:06 2.2 °C 1.7 °C 1034.4 hPa Calm     97 % 0.0 mm 7.0 W/m2
09:12 2.2 °C 1.8 °C 1034.4 hPa Calm     97 % 0.0 mm 11.0 W/m2
09:13 2.2 °C 1.8 °C 1034.4 hPa Calm     97 % 0.0 mm 12.0 W/m2
09:18 2.2 °C 1.8 °C 1034.4 hPa Calm     97 % 0.0 mm 14.0 W/m2
09:23 2.2 °C 1.8 °C 1034.4 hPa Calm     97 % 0.0 mm 16.0 W/m2
09:26 2.3 °C 2.1 °C 1034.4 hPa Calm     98 % 0.0 mm 18.0 W/m2
09:30 2.3 °C 1.9 °C 1034.8 hPa Calm     97 % 0.0 mm 18.0 W/m2
09:35 2.3 °C 1.9 °C 1034.8 hPa Calm     97 % 0.0 mm 19.0 W/m2
09:38 2.3 °C 1.9 °C 1034.8 hPa Calm     97 % 0.0 mm 21.0 W/m2
09:40 2.3 °C 1.9 °C 1034.8 hPa Calm     97 % 0.0 mm 23.0 W/m2
09:45 2.6 °C 2.3 °C 1034.8 hPa Calm     98 % 0.0 mm 32.0 W/m2
09:50 2.7 °C 2.4 °C 1034.8 hPa Calm     98 % 0.0 mm 56.0 W/m2
09:55 2.9 °C 2.6 °C 1034.8 hPa Calm     98 % 0.0 mm 79.0 W/m2
10:00 3.1 °C 2.8 °C 1035.1 hPa Calm     98 % 0.0 mm 116.0 W/m2
10:05 3.2 °C 2.9 °C 1035.1 hPa Calm   1.6 km/h 98 % 0.0 mm 123.0 W/m2
10:10 3.2 °C 2.9 °C 1035.1 hPa Calm     98 % 0.0 mm 137.0 W/m2
10:12 3.2 °C 2.8 °C 1035.4 hPa Calm     97 % 0.0 mm 141.0 W/m2
10:18 3.4 °C 3.2 °C 1035.4 hPa Calm     98 % 0.0 mm 149.0 W/m2
10:20 3.6 °C 3.3 °C 1035.4 hPa Calm     98 % 0.0 mm 155.0 W/m2
10:25 3.7 °C 3.4 °C 1035.4 hPa Calm     98 % 0.0 mm 163.0 W/m2
10:29 3.9 °C 3.8 °C 1035.4 hPa Calm     99 % 0.0 mm 171.0 W/m2
10:35 4.5 °C 4.3 °C 1035.4 hPa Calm     99 % 0.0 mm 181.0 W/m2
10:36 4.6 °C 4.4 °C 1035.4 hPa Calm     99 % 0.0 mm 183.0 W/m2
10:41 4.7 °C 4.6 °C 1035.4 hPa SE 3.7 km/h 3.7 km/h 99 % 0.0 mm 185.0 W/m2
10:46 4.6 °C 4.3 °C 1035.4 hPa SE 1.9 km/h   98 % 0.0 mm 33.0 W/m2
10:47 4.5 °C 4.2 °C 1035.4 hPa Calm     98 % 0.0 mm 33.0 W/m2
10:52 4.5 °C 4.2 °C 1035.1 hPa Calm     98 % 0.0 mm 33.0 W/m2
10:57 4.5 °C 4.2 °C 1035.4 hPa Calm     98 % 0.0 mm 33.0 W/m2
10:59 4.6 °C 4.3 °C 1035.1 hPa Calm     98 % 0.0 mm 33.0 W/m2
11:04 4.7 °C 4.4 °C 1035.1 hPa Calm     98 % 0.0 mm 33.0 W/m2
11:05 4.7 °C 4.4 °C 1035.1 hPa SE 3.2 km/h 3.2 km/h 98 % 0.0 mm 33.0 W/m2
11:10 4.9 °C 4.6 °C 1035.1 hPa Calm     98 % 0.0 mm 33.0 W/m2
11:15 5.1 °C 4.8 °C 1035.1 hPa Calm     98 % 0.0 mm 35.0 W/m2
11:20 5.2 °C 4.7 °C 1035.1 hPa Calm     97 % 0.0 mm 35.0 W/m2
11:26 5.3 °C 5.1 °C 1035.1 hPa Calm     98 % 0.0 mm 35.0 W/m2
11:29 5.4 °C 5.0 °C 1035.1 hPa Calm     97 % 0.0 mm 35.0 W/m2
11:34 5.6 °C 5.2 °C 1034.8 hPa Calm     97 % 0.0 mm 37.0 W/m2
11:39 5.7 °C 5.4 °C 1034.8 hPa Calm     98 % 0.0 mm 37.0 W/m2
11:44 6.2 °C 5.9 °C 1035.1 hPa Calm     98 % 0.0 mm 37.0 W/m2
11:45 6.1 °C 5.8 °C 1035.1 hPa Calm     98 % 0.0 mm 37.0 W/m2
11:50 6.2 °C 5.7 °C 1035.1 hPa Calm     97 % 0.0 mm 39.0 W/m2
11:51 6.2 °C 5.7 °C 1035.1 hPa Calm     97 % 0.0 mm 39.0 W/m2
11:56 6.2 °C 5.8 °C 1035.1 hPa Calm     97 % 0.0 mm 39.0 W/m2
12:01 6.4 °C 5.9 °C 1034.8 hPa Calm     97 % 0.0 mm 39.0 W/m2
12:06 6.4 °C 6.0 °C 1034.8 hPa Calm     97 % 0.0 mm 39.0 W/m2
12:11 6.6 °C 6.1 °C 1034.8 hPa Calm     97 % 0.0 mm 81.0 W/m2
12:15 6.9 °C 6.7 °C 1034.8 hPa Calm     98 % 0.0 mm 316.0 W/m2
12:21 7.3 °C 7.0 °C 1034.8 hPa Calm     98 % 0.0 mm 267.0 W/m2
12:26 7.6 °C 7.3 °C 1034.8 hPa Calm     98 % 0.0 mm 153.0 W/m2
12:31 7.7 °C 7.2 °C 1034.8 hPa SE 1.9 km/h 1.9 km/h 97 % 0.0 mm 334.0 W/m2
12:36 7.8 °C 7.4 °C 1034.8 hPa Calm     97 % 0.0 mm 339.0 W/m2
12:37 7.9 °C 7.4 °C 1034.8 hPa Calm     97 % 0.0 mm 339.0 W/m2
12:42 8.2 °C 7.7 °C 1034.8 hPa Calm     97 % 0.0 mm 343.0 W/m2
12:47 8.7 °C 8.4 °C 1034.8 hPa Calm     98 % 0.0 mm 352.0 W/m2
12:50 8.7 °C 8.3 °C 1034.8 hPa Calm     97 % 0.0 mm 359.0 W/m2
12:55 8.8 °C 8.1 °C 1034.8 hPa Calm     95 % 0.0 mm 360.0 W/m2
13:00 9.0 °C 7.9 °C 1034.8 hPa Calm     93 % 0.0 mm 366.0 W/m2
13:05 9.2 °C 7.9 °C 1034.8 hPa Calm     92 % 0.0 mm 367.0 W/m2
13:06 9.2 °C 8.0 °C 1034.8 hPa Calm     92 % 0.0 mm 369.0 W/m2
13:11 9.5 °C 7.6 °C 1034.4 hPa Calm     88 % 0.0 mm 373.0 W/m2
13:16 9.7 °C 7.5 °C 1034.4 hPa Calm     86 % 0.0 mm 376.0 W/m2
13:19 9.8 °C 7.2 °C 1034.4 hPa Calm     84 % 0.0 mm 378.0 W/m2
13:24 9.9 °C 6.4 °C 1034.8 hPa SE 5.6 km/h 5.6 km/h 79 % 0.0 mm 381.0 W/m2
13:26 10.1 °C 6.6 °C 1034.8 hPa SE 1.9 km/h   79 % 0.0 mm 381.0 W/m2
13:29 10.1 °C 6.8 °C 1034.4 hPa Calm     80 % 0.0 mm 383.0 W/m2
13:32 10.1 °C 6.6 °C 1034.4 hPa SE 1.9 km/h 1.9 km/h 79 % 0.0 mm 385.0 W/m2
13:37 10.3 °C 6.2 °C 1034.4 hPa SE 1.9 km/h 1.9 km/h 76 % 0.0 mm 385.0 W/m2
13:41 10.4 °C 5.8 °C 1034.4 hPa Calm     73 % 0.0 mm 387.0 W/m2
13:46 10.6 °C 5.9 °C 1034.4 hPa SE 1.9 km/h 1.9 km/h 73 % 0.0 mm 387.0 W/m2
13:49 10.6 °C 5.8 °C 1034.1 hPa SE 1.9 km/h   72 % 0.0 mm 373.0 W/m2
13:52 10.8 °C 5.5 °C 1034.1 hPa Calm     70 % 0.0 mm 371.0 W/m2
13:54 10.8 °C 5.1 °C 1034.1 hPa SE 3.2 km/h 3.2 km/h 68 % 0.0 mm 374.0 W/m2
14:00 10.9 °C 5.0 °C 1034.1 hPa Calm   4.8 km/h 67 % 0.0 mm 381.0 W/m2
14:04 10.9 °C 4.8 °C 1034.1 hPa East 3.7 km/h 3.7 km/h 66 % 0.0 mm 376.0 W/m2
14:05 11.1 °C 4.7 °C 1034.1 hPa East 3.7 km/h 3.7 km/h 65 % 0.0 mm 380.0 W/m2
14:10 11.2 °C 4.7 °C 1034.1 hPa Calm     64 % 0.0 mm 381.0 W/m2
14:11 11.2 °C 4.7 °C 1034.1 hPa East 1.9 km/h   64 % 0.0 mm 381.0 W/m2
14:13 11.2 °C 4.4 °C 1034.1 hPa East 3.7 km/h 3.7 km/h 63 % 0.0 mm 380.0 W/m2
14:18 11.3 °C 4.3 °C 1034.1 hPa East 3.7 km/h 3.7 km/h 62 % 0.0 mm 374.0 W/m2
14:23 11.3 °C 4.5 °C 1034.1 hPa East 1.6 km/h 1.6 km/h 63 % 0.0 mm 373.0 W/m2
14:24 11.4 °C 4.6 °C 1034.1 hPa East 3.2 km/h 3.2 km/h 63 % 0.0 mm 373.0 W/m2
14:29 11.6 °C 4.5 °C 1034.1 hPa ENE 5.6 km/h 5.6 km/h 62 % 0.0 mm 367.0 W/m2
14:31 11.6 °C 4.5 °C 1034.1 hPa ENE 1.9 km/h 1.9 km/h 62 % 0.0 mm 366.0 W/m2
14:36 11.4 °C 4.4 °C 1034.1 hPa Calm     62 % 0.0 mm 362.0 W/m2
14:38 11.6 °C 4.5 °C 1034.1 hPa Calm     62 % 0.0 mm 359.0 W/m2
14:41 11.6 °C 4.5 °C 1034.1 hPa ENE 5.6 km/h 5.6 km/h 62 % 0.0 mm 352.0 W/m2
14:44 11.6 °C 4.3 °C 1034.1 hPa ENE 4.8 km/h 4.8 km/h 61 % 0.0 mm 352.0 W/m2
14:49 11.4 °C 3.9 °C 1034.1 hPa ENE 5.6 km/h 5.6 km/h 60 % 0.0 mm 348.0 W/m2
14:53 11.4 °C 3.7 °C 1034.1 hPa Calm     59 % 0.0 mm 343.0 W/m2
14:58 11.4 °C 3.7 °C 1034.1 hPa ENE 1.9 km/h   59 % 0.0 mm 336.0 W/m2
15:03 11.4 °C 3.7 °C 1034.1 hPa ENE 3.7 km/h 3.7 km/h 59 % 0.0 mm 330.0 W/m2
15:05 11.4 °C 3.7 °C 1034.1 hPa Calm   3.2 km/h 59 % 0.0 mm 329.0 W/m2
15:10 11.6 °C 4.1 °C 1034.1 hPa Calm   1.6 km/h 60 % 0.0 mm 323.0 W/m2
15:15 11.8 °C 4.3 °C 1033.7 hPa Calm     60 % 0.0 mm 316.0 W/m2
15:17 12.0 °C 4.0 °C 1033.7 hPa Calm     58 % 0.0 mm 318.0 W/m2
15:22 12.3 °C 4.5 °C 1033.7 hPa Calm     59 % 0.0 mm 311.0 W/m2
15:26 12.2 °C 4.2 °C 1033.7 hPa ENE 1.9 km/h   58 % 0.0 mm 306.0 W/m2
15:31 12.3 °C 4.2 °C 1033.7 hPa ENE 1.9 km/h   58 % 0.0 mm 297.0 W/m2
15:35 11.9 °C 3.7 °C 1033.7 hPa ENE 1.9 km/h   57 % 0.0 mm 274.0 W/m2
15:40 11.8 °C 4.1 °C 1033.7 hPa NE 7.4 km/h 7.4 km/h 59 % 0.0 mm 287.0 W/m2
15:45 11.9 °C 4.7 °C 1033.7 hPa Calm     61 % 0.0 mm 281.0 W/m2
15:49 11.9 °C 4.4 °C 1033.7 hPa NE 1.9 km/h 1.9 km/h 60 % 0.0 mm 272.0 W/m2
15:54 11.9 °C 4.4 °C 1033.7 hPa Calm     60 % 0.0 mm 244.0 W/m2
15:59 12.0 °C 4.4 °C 1033.7 hPa Calm     60 % 0.0 mm 246.0 W/m2
16:01 12.1 °C 4.6 °C 1034.1 hPa NE 3.7 km/h 3.7 km/h 60 % 0.0 mm 255.0 W/m2
16:06 12.3 °C 4.8 °C 1034.1 hPa Calm     60 % 0.0 mm 244.0 W/m2
16:08 12.3 °C 5.0 °C 1034.1 hPa Calm     61 % 0.0 mm 244.0 W/m2
16:13 12.3 °C 4.7 °C 1034.1 hPa NE 3.7 km/h 3.7 km/h 60 % 0.0 mm 200.0 W/m2
16:15 12.2 °C 4.6 °C 1034.1 hPa NE 1.9 km/h 1.9 km/h 60 % 0.0 mm 230.0 W/m2
16:17 12.1 °C 4.6 °C 1034.1 hPa NE 3.7 km/h 3.7 km/h 60 % 0.0 mm 221.0 W/m2
16:22 12.1 °C 4.6 °C 1034.1 hPa Calm     60 % 0.3 mm 232.0 W/m2
16:24 12.2 °C 4.6 °C 1034.1 hPa NE 1.9 km/h 1.9 km/h 60 % 0.3 mm 229.0 W/m2
16:29 12.3 °C 4.7 °C 1034.1 hPa NE 3.7 km/h 3.7 km/h 60 % 0.3 mm 200.0 W/m2
Meteoabegondo
Agradecimientos a Weather Underground - 2.75 mb